createdAt,value
2018-09-18T00:00:04.559Z,57.73
2018-09-18T00:01:04.573Z,57.83
2018-09-18T00:02:04.544Z,58.03
2018-09-18T00:03:04.546Z,59.07
2018-09-18T00:04:04.524Z,58.34
2018-09-18T00:05:04.522Z,59.17
2018-09-18T00:06:04.496Z,58.67
2018-09-18T00:07:04.484Z,58.14
2018-09-18T00:08:04.481Z,58.84
2018-09-18T00:09:04.479Z,59.04
2018-09-18T00:10:04.454Z,58.23
2018-09-18T00:11:04.442Z,58.76
2018-09-18T00:12:04.432Z,58.56
2018-09-18T00:13:04.424Z,58.36
2018-09-18T00:14:04.455Z,58.76
2018-09-18T00:15:04.424Z,58.76
2018-09-18T00:16:04.394Z,58.87
2018-09-18T00:17:04.382Z,59.17
2018-09-18T00:18:04.367Z,58.76
2018-09-18T00:19:04.358Z,58.67
2018-09-18T00:20:04.345Z,59.37
2018-09-18T00:21:04.350Z,58.76
2018-09-18T00:22:04.327Z,59.07
2018-09-18T00:23:04.318Z,59.20
2018-09-18T00:24:04.317Z,59.40
2018-09-18T00:25:04.307Z,59.40
2018-09-18T00:26:04.282Z,59.00
2018-09-18T00:27:04.277Z,59.27
2018-09-18T00:28:04.268Z,59.27
2018-09-18T00:29:04.250Z,59.07
2018-09-18T00:30:04.236Z,59.17
2018-09-18T00:31:04.239Z,58.97
2018-09-18T00:32:04.212Z,59.27
2018-09-18T00:33:04.219Z,58.97
2018-09-18T00:34:04.234Z,58.97
2018-09-18T00:35:04.191Z,58.87
2018-09-18T00:36:04.177Z,58.76
2018-09-18T00:37:04.200Z,58.76
2018-09-18T00:38:04.151Z,59.27
2018-09-18T00:39:04.150Z,58.76
2018-09-18T00:40:04.134Z,59.17
2018-09-18T00:41:04.119Z,58.74
2018-09-18T00:42:04.115Z,59.14
2018-09-18T00:43:04.093Z,58.34
2018-09-18T00:44:04.093Z,58.51
2018-09-18T00:45:04.084Z,59.04
2018-09-18T00:46:04.070Z,58.03
2018-09-18T00:47:04.074Z,57.83
2018-09-18T00:48:04.046Z,57.63
2018-09-18T00:49:04.045Z,58.44
2018-09-18T00:50:04.034Z,58.44
2018-09-18T00:51:04.006Z,58.23
2018-09-18T00:52:03.995Z,58.54
2018-09-18T00:53:03.987Z,58.94
2018-09-18T00:54:03.981Z,58.54
2018-09-18T00:55:03.987Z,58.64
2018-09-18T00:56:03.952Z,59.04
2018-09-18T00:57:03.940Z,58.54
2018-09-18T00:58:03.935Z,58.74
2018-09-18T00:59:03.930Z,58.23
2018-09-18T01:00:03.927Z,58.94
2018-09-18T01:01:03.913Z,58.14
2018-09-18T01:02:03.903Z,57.83
2018-09-18T01:03:03.876Z,57.81
2018-09-18T01:04:03.868Z,57.53
2018-09-18T01:05:03.856Z,58.01
2018-09-18T01:06:03.879Z,57.60
2018-09-18T01:07:03.847Z,58.31
2018-09-18T01:08:03.833Z,57.50
2018-09-18T01:09:03.842Z,57.73
2018-09-18T01:10:03.822Z,57.50
2018-09-18T01:11:03.814Z,57.70
2018-09-18T01:12:03.786Z,57.20
2018-09-18T01:13:03.783Z,57.30
2018-09-18T01:14:03.761Z,57.20
2018-09-18T01:15:03.759Z,57.90
2018-09-18T01:16:03.750Z,57.20
2018-09-18T01:17:03.727Z,57.40
2018-09-18T01:18:03.747Z,57.40
2018-09-18T01:19:03.719Z,57.30
2018-09-18T01:20:03.698Z,57.30
2018-09-18T01:21:03.686Z,57.10
2018-09-18T01:22:03.672Z,57.30
2018-09-18T01:23:03.687Z,57.30
2018-09-18T01:24:03.656Z,57.20
2018-09-18T01:25:03.638Z,57.30
2018-09-18T01:26:03.632Z,57.50
2018-09-18T01:27:03.624Z,57.50
2018-09-18T01:28:03.615Z,57.20
2018-09-18T01:29:03.599Z,57.10
2018-09-18T01:30:03.595Z,57.30
2018-09-18T01:31:03.582Z,57.90
2018-09-18T01:32:03.569Z,57.73
2018-09-18T01:33:03.584Z,57.93
2018-09-18T01:34:03.543Z,57.50
2018-09-18T01:35:03.535Z,57.40
2018-09-18T01:36:03.522Z,57.70
2018-09-18T01:37:03.510Z,57.40
2018-09-18T01:38:03.502Z,56.70
2018-09-18T01:39:03.510Z,56.90
2018-09-18T01:40:03.488Z,57.10
2018-09-18T01:41:03.470Z,57.23
2018-09-18T01:42:03.458Z,57.20
2018-09-18T01:43:03.441Z,57.73
2018-09-18T01:44:03.441Z,57.93
2018-09-18T01:45:03.436Z,57.40
2018-09-18T01:46:03.433Z,57.40
2018-09-18T01:47:03.410Z,57.50
2018-09-18T01:48:03.388Z,57.40
2018-09-18T01:49:03.385Z,57.50
2018-09-18T01:50:03.371Z,57.73
2018-09-18T01:51:03.384Z,57.93
2018-09-18T01:52:03.355Z,58.23
2018-09-18T01:53:03.341Z,58.34
2018-09-18T01:54:03.324Z,59.07
2018-09-18T01:55:03.311Z,58.97
2018-09-18T01:56:03.299Z,58.87
2018-09-18T01:57:03.306Z,59.17
2018-09-18T01:58:03.285Z,58.16
2018-09-18T01:59:03.275Z,58.36
2018-09-18T02:00:03.259Z,58.26
2018-09-18T02:01:03.247Z,58.36
2018-09-18T02:02:03.258Z,58.36
2018-09-18T02:03:03.246Z,58.97
2018-09-18T02:04:03.220Z,58.76
2018-09-18T02:05:03.212Z,59.17
2018-09-18T02:06:03.194Z,58.97
2018-09-18T02:07:03.179Z,58.36
2018-09-18T02:08:03.168Z,59.07
2018-09-18T02:09:03.193Z,58.06
2018-09-18T02:10:03.152Z,58.14
2018-09-18T02:11:03.153Z,57.93
2018-09-18T02:12:03.133Z,59.17
2018-09-18T02:13:03.121Z,58.87
2018-09-18T02:14:03.107Z,58.87
2018-09-18T02:15:03.107Z,58.26
2018-09-18T02:16:03.089Z,59.07
2018-09-18T02:17:03.076Z,59.07
2018-09-18T02:18:03.063Z,58.94
2018-09-18T02:19:03.048Z,58.84
2018-09-18T02:20:03.040Z,59.04
2018-09-18T02:21:03.039Z,58.76
2018-09-18T02:22:03.021Z,58.34
2018-09-18T02:23:03.012Z,59.07
2018-09-18T02:24:03.006Z,58.47
2018-09-18T02:25:02.989Z,58.67
2018-09-18T02:26:02.988Z,59.27
2018-09-18T02:27:02.964Z,58.76
2018-09-18T02:28:02.951Z,58.76
2018-09-18T02:29:02.942Z,58.87
2018-09-18T02:30:02.937Z,59.37
2018-09-18T02:31:02.937Z,59.40
2018-09-18T02:32:02.943Z,59.09
2018-09-18T02:33:02.908Z,59.40
2018-09-18T02:34:02.890Z,59.40
2018-09-18T02:35:02.882Z,59.50
2018-09-18T02:36:02.885Z,59.40
2018-09-18T02:37:02.859Z,60.00
2018-09-18T02:38:02.853Z,59.80
2018-09-18T02:39:02.834Z,59.90
2018-09-18T02:40:02.826Z,59.40
2018-09-18T02:41:02.813Z,59.57
2018-09-18T02:42:02.833Z,59.30
2018-09-18T02:43:02.797Z,59.30
2018-09-18T02:44:02.792Z,59.40
2018-09-18T02:45:02.777Z,59.00
2018-09-18T02:46:02.756Z,59.09
2018-09-18T02:47:02.753Z,59.50
2018-09-18T02:48:02.751Z,59.40
2018-09-18T02:49:02.728Z,59.60
2018-09-18T02:50:02.719Z,60.10
2018-09-18T02:51:02.698Z,59.40
2018-09-18T02:52:02.688Z,59.60
2018-09-18T02:53:02.696Z,60.00
2018-09-18T02:54:02.672Z,60.00
2018-09-18T02:55:02.664Z,59.80
2018-09-18T02:56:02.655Z,59.70
2018-09-18T02:57:02.645Z,59.40
2018-09-18T02:58:02.633Z,60.10
2018-09-18T02:59:02.621Z,60.10
2018-09-18T03:00:02.610Z,59.73
2018-09-18T03:01:02.594Z,59.33
2018-09-18T03:02:02.593Z,60.13
2018-09-18T03:03:02.592Z,59.63
2018-09-18T03:04:02.562Z,60.03
2018-09-18T03:05:02.571Z,59.30
2018-09-18T03:06:02.544Z,59.42
2018-09-18T03:07:02.529Z,59.93
2018-09-18T03:08:02.530Z,59.60
2018-09-18T03:09:02.515Z,59.80
2018-09-18T03:10:02.492Z,59.70
2018-09-18T03:11:02.485Z,60.00
2018-09-18T03:12:02.479Z,59.60
2018-09-18T03:13:02.492Z,59.80
2018-09-18T03:14:02.463Z,59.70
2018-09-18T03:15:02.442Z,60.13
2018-09-18T03:16:02.432Z,59.50
2018-09-18T03:17:02.425Z,59.60
2018-09-18T03:18:02.429Z,59.30
2018-09-18T03:19:02.411Z,59.70
2018-09-18T03:20:02.392Z,59.00
2018-09-18T03:21:02.470Z,59.70
2018-09-18T03:22:02.362Z,59.09
2018-09-18T03:23:02.368Z,59.40
2018-09-18T03:24:02.344Z,60.10
2018-09-18T03:25:02.346Z,59.30
2018-09-18T03:26:02.327Z,59.09
2018-09-18T03:27:02.315Z,59.09
2018-09-18T03:28:02.321Z,59.00
2018-09-18T03:29:02.294Z,59.09
2018-09-18T03:30:02.278Z,58.89
2018-09-18T03:31:02.283Z,59.50
2018-09-18T03:32:02.271Z,59.40
2018-09-18T03:33:02.244Z,59.30
2018-09-18T03:34:02.240Z,58.89
2018-09-18T03:35:02.248Z,59.30
2018-09-18T03:36:02.212Z,59.80
2018-09-18T03:37:02.241Z,59.30
2018-09-18T03:38:02.201Z,59.80
2018-09-18T03:39:02.191Z,60.24
2018-09-18T03:40:02.203Z,60.44
2018-09-18T03:41:02.187Z,60.16
2018-09-18T03:42:02.157Z,60.33
2018-09-18T03:43:02.149Z,60.13
2018-09-18T03:44:02.129Z,60.24
2018-09-18T03:45:02.127Z,59.93
2018-09-18T03:46:02.183Z,60.13
2018-09-18T03:47:02.111Z,60.33
2018-09-18T03:48:02.087Z,59.63
2018-09-18T03:49:02.124Z,59.42
2018-09-18T03:50:02.060Z,60.26
2018-09-18T03:51:02.053Z,60.53
2018-09-18T03:52:02.045Z,60.77
2018-09-18T03:53:02.045Z,60.77
2018-09-18T03:54:02.016Z,60.24
2018-09-18T03:55:02.026Z,60.33
2018-09-18T03:56:02.001Z,60.74
2018-09-18T03:57:02.000Z,60.03
2018-09-18T03:58:01.985Z,60.97
2018-09-18T03:59:01.972Z,60.74
2018-09-18T04:00:01.962Z,60.57
2018-09-18T04:01:01.970Z,60.06
2018-09-18T04:02:01.932Z,60.66
2018-09-18T04:03:02.012Z,60.66
2018-09-18T04:04:01.932Z,60.66
2018-09-18T04:05:01.901Z,60.33
2018-09-18T04:06:01.906Z,60.06
2018-09-18T04:07:01.892Z,60.57
2018-09-18T04:08:01.867Z,60.66
2018-09-18T04:09:01.854Z,60.57
2018-09-18T04:10:01.900Z,60.77
2018-09-18T04:11:01.838Z,60.87
2018-09-18T04:12:01.830Z,60.36
2018-09-18T04:13:01.834Z,60.97
2018-09-18T04:14:01.802Z,60.87
2018-09-18T04:15:01.792Z,60.77
2018-09-18T04:16:01.797Z,60.57
2018-09-18T04:17:01.771Z,60.36
2018-09-18T04:18:01.769Z,60.57
2018-09-18T04:19:01.755Z,60.36
2018-09-18T04:20:01.742Z,60.57
2018-09-18T04:21:01.733Z,60.97
2018-09-18T04:22:01.730Z,60.66
2018-09-18T04:23:01.709Z,60.06
2018-09-18T04:24:01.701Z,60.26
2018-09-18T04:25:01.691Z,60.44
2018-09-18T04:26:01.671Z,59.73
2018-09-18T04:27:01.667Z,60.03
2018-09-18T04:28:01.671Z,59.56
2018-09-18T04:29:01.649Z,60.06
2018-09-18T04:30:01.634Z,60.26
2018-09-18T04:31:01.622Z,59.76
2018-09-18T04:32:01.614Z,60.16
2018-09-18T04:33:01.607Z,60.77
2018-09-18T04:34:01.600Z,60.26
2018-09-18T04:35:01.583Z,60.26
2018-09-18T04:36:01.583Z,60.06
2018-09-18T04:37:01.575Z,60.77
2018-09-18T04:38:01.550Z,60.77
2018-09-18T04:39:01.538Z,60.36
2018-09-18T04:40:01.524Z,60.57
2018-09-18T04:41:01.522Z,60.26
2018-09-18T04:42:01.513Z,60.36
2018-09-18T04:43:01.495Z,60.66
2018-09-18T04:44:01.485Z,60.77
2018-09-18T04:45:01.491Z,60.57
2018-09-18T04:46:01.472Z,60.77
2018-09-18T04:47:01.453Z,60.77
2018-09-18T04:48:01.440Z,60.77
2018-09-18T04:49:01.425Z,60.66
2018-09-18T04:50:01.431Z,60.77
2018-09-18T04:51:01.436Z,60.57
2018-09-18T04:52:01.400Z,60.36
2018-09-18T04:53:01.401Z,60.87
2018-09-18T04:54:01.370Z,60.80
2018-09-18T04:55:01.462Z,60.66
2018-09-18T04:56:01.365Z,60.60
2018-09-18T04:57:01.357Z,60.06
2018-09-18T04:58:01.342Z,60.29
2018-09-18T04:59:01.319Z,60.16
2018-09-18T05:00:01.331Z,60.16
2018-09-18T05:01:01.295Z,60.16
2018-09-18T05:02:01.366Z,60.26
2018-09-18T05:03:01.279Z,60.06
2018-09-18T05:04:01.285Z,60.26
2018-09-18T05:05:01.259Z,59.86
2018-09-18T05:06:01.256Z,59.66
2018-09-18T05:07:01.251Z,59.96
2018-09-18T05:08:01.222Z,59.73
2018-09-18T05:09:01.209Z,59.63
2018-09-18T05:10:01.209Z,59.93
2018-09-18T05:11:01.194Z,59.02
2018-09-18T05:12:01.180Z,59.02
2018-09-18T05:13:01.197Z,59.53
2018-09-18T05:14:01.246Z,59.53
2018-09-18T05:15:01.150Z,59.73
2018-09-18T05:16:01.152Z,58.92
2018-09-18T05:17:01.133Z,59.73
2018-09-18T05:18:01.113Z,59.83
2018-09-18T05:19:55.076Z,59.63
2018-09-18T05:20:55.060Z,59.63
2018-09-18T05:21:55.056Z,58.92
2018-09-18T05:22:55.042Z,59.42
2018-09-18T05:23:55.040Z,59.12
2018-09-18T05:24:55.018Z,59.42
2018-09-18T05:25:55.009Z,59.33
2018-09-18T05:26:54.991Z,59.42
2018-09-18T05:27:54.983Z,59.12
2018-09-18T05:28:54.983Z,59.02
2018-09-18T05:29:54.958Z,59.33
2018-09-18T05:30:54.959Z,59.93
2018-09-18T05:31:54.958Z,59.33
2018-09-18T05:32:54.947Z,59.12
2018-09-18T05:33:54.928Z,60.13
2018-09-18T05:34:54.906Z,59.02
2018-09-18T05:35:54.899Z,59.63
2018-09-18T05:36:54.890Z,59.63
2018-09-18T05:37:54.881Z,59.12
2018-09-18T05:38:54.873Z,59.33
2018-09-18T05:39:54.855Z,59.63
2018-09-18T05:40:54.843Z,59.63
2018-09-18T05:41:54.886Z,59.63
2018-09-18T05:42:54.828Z,59.63
2018-09-18T05:43:54.826Z,59.83
2018-09-18T05:44:54.806Z,59.42
2018-09-18T05:45:54.802Z,59.53
2018-09-18T05:46:54.784Z,59.70
2018-09-18T05:47:54.774Z,59.30
2018-09-18T05:48:54.762Z,59.50
2018-09-18T05:49:54.755Z,59.40
2018-09-18T05:50:54.733Z,59.20
2018-09-18T05:51:54.852Z,59.00
2018-09-18T05:52:54.716Z,58.80
2018-09-18T05:53:54.709Z,58.76
2018-09-18T05:54:54.708Z,59.07
2018-09-18T05:55:54.682Z,58.36
2018-09-18T05:56:54.682Z,58.67
2018-09-18T05:57:54.658Z,58.56
2018-09-18T05:58:54.667Z,58.26
2018-09-18T05:59:54.641Z,58.76
2018-09-18T06:00:54.630Z,58.34
2018-09-18T06:01:54.622Z,58.23
2018-09-18T06:02:54.616Z,58.14
2018-09-18T06:03:54.606Z,57.83
2018-09-18T06:04:54.586Z,57.90
2018-09-18T06:05:54.570Z,57.30
2018-09-18T06:06:54.567Z,57.60
2018-09-18T06:07:54.586Z,57.10
2018-09-18T06:08:54.541Z,57.17
2018-09-18T06:09:54.526Z,56.77
2018-09-18T06:10:54.523Z,56.27
2018-09-18T06:11:54.511Z,56.07
2018-09-18T06:12:54.499Z,55.83
2018-09-18T06:13:54.505Z,56.14
2018-09-18T06:14:54.473Z,56.34
2018-09-18T06:15:54.464Z,56.01
2018-09-18T06:16:54.454Z,56.54
2018-09-18T06:17:54.456Z,55.91
2018-09-18T06:18:54.478Z,55.91
2018-09-18T06:19:54.424Z,56.01
2018-09-18T06:20:54.419Z,56.19
2018-09-18T06:21:54.407Z,55.38
2018-09-18T06:22:54.387Z,55.58
2018-09-18T06:23:54.378Z,55.16
2018-09-18T06:24:54.381Z,54.88
2018-09-18T06:25:54.361Z,54.88
2018-09-18T06:26:54.346Z,55.16
2018-09-18T06:27:54.334Z,54.35
2018-09-18T06:28:54.320Z,54.35
2018-09-18T06:29:54.325Z,54.33
2018-09-18T06:30:54.331Z,54.22
2018-09-18T06:31:54.293Z,54.63
2018-09-18T06:32:54.283Z,54.33
2018-09-18T06:33:54.275Z,53.39
2018-09-18T06:34:54.258Z,53.70
2018-09-18T06:35:54.260Z,53.30
2018-09-18T06:36:54.273Z,53.70
2018-09-18T06:37:54.247Z,53.27
2018-09-18T06:38:54.220Z,53.09
2018-09-18T06:39:54.209Z,53.20
2018-09-18T06:40:54.215Z,53.00
2018-09-18T06:41:54.182Z,53.80
2018-09-18T06:42:54.178Z,52.80
2018-09-18T06:43:54.175Z,53.17
2018-09-18T06:44:54.153Z,52.67
2018-09-18T06:45:54.146Z,53.07
2018-09-18T06:46:54.126Z,52.67
2018-09-18T06:47:54.173Z,51.97
2018-09-18T06:48:54.122Z,51.94
2018-09-18T06:49:54.094Z,51.94
2018-09-18T06:50:54.091Z,51.64
2018-09-18T06:51:54.100Z,51.64
2018-09-18T06:52:54.066Z,51.51
2018-09-18T06:53:54.065Z,51.51
2018-09-18T06:54:54.055Z,51.21
2018-09-18T06:55:54.032Z,50.92
2018-09-18T06:56:54.025Z,51.21
2018-09-18T06:57:54.016Z,51.62
2018-09-18T06:58:53.997Z,51.72
2018-09-18T06:59:53.989Z,51.21
2018-09-18T07:00:53.994Z,51.19
2018-09-18T07:01:53.966Z,51.09
2018-09-18T07:02:53.983Z,51.09
2018-09-18T07:03:53.963Z,51.27
2018-09-18T07:04:53.938Z,50.26
2018-09-18T07:05:53.930Z,50.37
2018-09-18T07:06:53.922Z,49.84
2018-09-18T07:07:53.907Z,49.46
2018-09-18T07:08:53.892Z,49.44
2018-09-18T07:09:53.883Z,49.54
2018-09-18T07:10:53.900Z,50.04
2018-09-18T07:11:53.909Z,49.34
2018-09-18T07:12:53.858Z,49.22
2018-09-18T07:13:53.856Z,48.22
2018-09-18T07:14:53.839Z,48.72
2018-09-18T07:15:53.821Z,48.92
2018-09-18T07:16:53.836Z,48.92
2018-09-18T07:17:53.841Z,49.32
2018-09-18T07:18:53.783Z,47.89
2018-09-18T07:19:53.774Z,47.72
2018-09-18T07:20:53.779Z,48.07
2018-09-18T07:21:53.750Z,48.27
2018-09-18T07:22:53.753Z,47.85
2018-09-18T07:23:53.740Z,47.57
2018-09-18T07:24:53.800Z,47.35
2018-09-18T07:25:53.716Z,46.23
2018-09-18T07:26:53.725Z,46.15
2018-09-18T07:27:53.690Z,46.62
2018-09-18T07:28:53.680Z,46.15
2018-09-18T07:29:53.673Z,46.83
2018-09-18T07:30:53.653Z,46.23
2018-09-18T07:31:53.656Z,46.20
2018-09-18T07:32:53.653Z,45.48
2018-09-18T07:33:53.658Z,45.47
2018-09-18T07:34:53.620Z,45.36
2018-09-18T07:35:53.611Z,45.56
2018-09-18T07:36:53.594Z,44.05
2018-09-18T07:37:53.587Z,43.41
2018-09-18T07:38:53.578Z,43.59
2018-09-18T07:39:53.579Z,42.97
2018-09-18T07:40:53.611Z,42.13
2018-09-18T07:41:53.535Z,41.31
2018-09-18T07:42:53.535Z,41.04
2018-09-18T07:43:53.530Z,41.24
2018-09-18T07:44:53.508Z,41.42
2018-09-18T07:45:53.493Z,40.20
2018-09-18T07:46:53.491Z,40.88
2018-09-18T07:47:53.488Z,39.97
2018-09-18T07:48:53.478Z,40.42
2018-09-18T07:49:53.481Z,41.12
2018-09-18T07:50:53.441Z,41.14
2018-09-18T07:51:53.435Z,42.55
2018-09-18T07:52:53.426Z,42.94
2018-09-18T07:53:53.420Z,41.24
2018-09-18T07:54:53.412Z,42.25
2018-09-18T07:55:53.396Z,43.27
2018-09-18T07:56:53.388Z,43.68
2018-09-18T07:57:53.388Z,43.07
2018-09-18T07:58:53.363Z,41.95
2018-09-18T07:59:53.352Z,42.77
2018-09-18T08:00:53.346Z,43.13
2018-09-18T08:01:53.339Z,42.21
2018-09-18T08:02:53.355Z,40.98
2018-09-18T08:03:53.314Z,40.11
2018-09-18T08:04:53.305Z,41.31
2018-09-18T08:05:53.292Z,41.12
2018-09-18T08:06:53.290Z,39.77
2018-09-18T08:07:53.278Z,39.77
2018-09-18T08:08:53.284Z,38.53
2018-09-18T08:09:53.264Z,38.57
2018-09-18T08:10:53.322Z,37.13
2018-09-18T08:11:53.236Z,36.02
2018-09-18T08:12:53.229Z,35.81
2018-09-18T08:13:53.213Z,34.72
2018-09-18T08:14:53.220Z,34.59
2018-09-18T08:15:53.198Z,34.64
2018-09-18T08:16:53.185Z,31.89
2018-09-18T08:17:53.173Z,32.07
2018-09-18T08:18:53.311Z,31.17
2018-09-18T08:19:53.156Z,30.35
2018-09-18T08:20:53.162Z,29.81
2018-09-18T08:21:53.187Z,29.39
2018-09-18T08:22:53.146Z,29.81
2018-09-18T08:23:53.113Z,29.61
2018-09-18T08:24:53.104Z,29.93
2018-09-18T08:25:53.089Z,29.73
2018-09-18T08:26:53.116Z,29.14
2018-09-18T08:27:53.074Z,29.27
2018-09-18T08:28:53.063Z,29.83
2018-09-18T08:29:53.055Z,30.36
2018-09-18T08:30:53.037Z,29.41
2018-09-18T08:31:53.039Z,28.78
2018-09-18T08:32:53.061Z,28.65
2018-09-18T08:33:53.025Z,27.06
2018-09-18T08:34:52.996Z,27.23
2018-09-18T08:35:53.027Z,26.32
2018-09-18T08:36:52.980Z,25.63
2018-09-18T08:37:52.966Z,24.72
2018-09-18T08:38:52.966Z,23.81
2018-09-18T08:39:53.024Z,23.88
2018-09-18T08:40:52.974Z,23.30
2018-09-18T08:41:52.948Z,23.82
2018-09-18T08:42:52.918Z,24.51
2018-09-18T08:43:52.912Z,24.76
2018-09-18T08:44:52.908Z,25.85
2018-09-18T08:45:52.905Z,26.98
2018-09-18T08:46:52.907Z,27.86
2018-09-18T08:47:52.892Z,26.86
2018-09-18T08:48:52.910Z,25.82
2018-09-18T08:49:52.864Z,25.23
2018-09-18T08:50:52.856Z,25.63
2018-09-18T08:51:52.940Z,24.98
2018-09-18T08:52:52.855Z,23.75
2018-09-18T08:53:52.859Z,22.73
2018-09-18T08:54:52.929Z,21.15
2018-09-18T08:55:52.820Z,20.95
2018-09-18T08:56:52.815Z,20.77
2018-09-18T08:57:52.815Z,20.67
2018-09-18T08:58:52.803Z,20.64
2018-09-18T08:59:52.783Z,20.14
2018-09-18T09:00:52.764Z,19.65
2018-09-18T09:01:52.807Z,19.45
2018-09-18T09:02:52.768Z,19.23
2018-09-18T09:03:52.758Z,20.25
2018-09-18T09:04:52.774Z,21.86
2018-09-18T09:05:52.803Z,21.97
2018-09-18T09:06:52.713Z,22.93
2018-09-18T09:07:52.831Z,22.36
2018-09-18T09:08:52.822Z,21.45
2018-09-18T09:09:52.680Z,20.47
2018-09-18T09:10:52.721Z,19.95
2018-09-18T09:11:52.675Z,19.36
2018-09-18T09:12:52.666Z,19.58
2018-09-18T09:13:52.657Z,21.68
2018-09-18T09:14:52.723Z,21.69
2018-09-18T09:15:52.643Z,23.63
2018-09-18T09:16:52.665Z,23.82
2018-09-18T09:17:52.627Z,23.58
2018-09-18T09:18:52.639Z,23.35
2018-09-18T09:19:52.641Z,22.38
2018-09-18T09:20:52.682Z,22.05
2018-09-18T09:21:52.748Z,22.02
2018-09-18T09:22:52.649Z,23.80
2018-09-18T09:23:52.567Z,23.49
2018-09-18T09:24:52.569Z,23.34
2018-09-18T09:25:52.587Z,21.77
2018-09-18T09:26:52.569Z,22.02
2018-09-18T09:27:52.559Z,22.88
2018-09-18T09:28:52.537Z,23.58
2018-09-18T09:29:52.626Z,23.51
2018-09-18T09:30:52.542Z,22.33
2018-09-18T09:31:52.496Z,21.15
2018-09-18T09:32:52.503Z,21.44
2018-09-18T09:33:52.491Z,22.98
2018-09-18T09:34:52.465Z,23.30
2018-09-18T09:35:52.475Z,23.57
2018-09-18T09:36:52.475Z,23.60
2018-09-18T09:37:52.460Z,24.30
2018-09-18T09:38:52.465Z,23.36
2018-09-18T09:39:52.422Z,22.98
2018-09-18T09:40:52.416Z,22.94
2018-09-18T09:41:52.403Z,22.09
2018-09-18T09:42:52.402Z,22.82
2018-09-18T09:43:52.479Z,24.39
2018-09-18T09:44:52.388Z,23.57
2018-09-18T09:45:52.374Z,23.74
2018-09-18T09:46:52.359Z,23.08
2018-09-18T09:47:52.355Z,23.55
2018-09-18T09:48:52.361Z,23.85
2018-09-18T09:49:52.341Z,23.38
2018-09-18T09:50:52.331Z,24.40
2018-09-18T09:51:52.318Z,25.40
2018-09-18T09:52:52.308Z,26.65
2018-09-18T09:53:52.294Z,26.12
2018-09-18T09:54:52.305Z,26.12
2018-09-18T09:55:52.293Z,24.86
2018-09-18T09:56:52.320Z,24.49
2018-09-18T09:57:52.270Z,25.18
2018-09-18T09:58:52.269Z,24.02
2018-09-18T09:59:52.240Z,24.68
2018-09-18T10:00:52.241Z,24.77
2018-09-18T10:01:52.222Z,23.08
2018-09-18T10:02:52.304Z,23.52
2018-09-18T10:03:52.213Z,22.32
2018-09-18T10:04:52.217Z,21.14
2018-09-18T10:05:52.189Z,21.50
2018-09-18T10:06:52.178Z,21.24
2018-09-18T10:07:52.171Z,21.06
2018-09-18T10:08:52.167Z,21.47
2018-09-18T10:09:52.155Z,23.35
2018-09-18T10:10:52.329Z,23.80
2018-09-18T10:11:52.139Z,24.21
2018-09-18T10:12:52.120Z,24.16
2018-09-18T10:13:52.117Z,24.07
2018-09-18T10:14:52.109Z,24.09
2018-09-18T10:15:52.101Z,24.28
2018-09-18T10:16:52.104Z,25.68
2018-09-18T10:17:52.189Z,25.70
2018-09-18T10:18:52.070Z,25.41
2018-09-18T10:19:52.056Z,24.71
2018-09-18T10:20:52.047Z,25.65
2018-09-18T10:21:52.071Z,24.48
2018-09-18T10:22:52.039Z,24.28
2018-09-18T10:23:52.038Z,24.15
2018-09-18T10:24:52.022Z,23.65
2018-09-18T10:25:52.025Z,22.84
2018-09-18T10:26:52.093Z,22.88
2018-09-18T10:27:51.999Z,23.91
2018-09-18T10:28:51.978Z,23.75
2018-09-18T10:29:51.976Z,23.99
2018-09-18T10:30:51.959Z,24.35
2018-09-18T10:31:51.982Z,24.98
2018-09-18T10:32:51.946Z,24.79
2018-09-18T10:33:51.944Z,24.80
2018-09-18T10:34:51.938Z,25.65
2018-09-18T10:35:51.912Z,24.27
2018-09-18T10:36:51.937Z,25.26
2018-09-18T10:37:51.924Z,24.98
2018-09-18T10:38:51.878Z,26.31
2018-09-18T10:39:51.865Z,28.23
2018-09-18T10:40:52.002Z,30.35
2018-09-18T10:41:51.975Z,31.63
2018-09-18T10:42:51.858Z,34.74
2018-09-18T10:43:51.827Z,34.64
2018-09-18T10:44:51.817Z,34.34
2018-09-18T10:45:51.819Z,34.46
2018-09-18T10:46:51.801Z,34.54
2018-09-18T10:47:51.824Z,34.44
2018-09-18T10:48:51.799Z,34.18
2018-09-18T10:49:51.774Z,35.49
2018-09-18T10:50:51.759Z,35.78
2018-09-18T10:51:51.749Z,36.10
2018-09-18T10:52:51.751Z,36.10
2018-09-18T10:53:51.730Z,36.80
2018-09-18T10:54:51.745Z,36.51
2018-09-18T10:55:51.716Z,37.16
2018-09-18T10:56:51.695Z,36.87
2018-09-18T10:57:51.688Z,36.75
2018-09-18T10:58:51.692Z,35.55
2018-09-18T10:59:51.695Z,34.66
2018-09-18T11:00:51.663Z,35.57
2018-09-18T11:01:51.716Z,35.97
2018-09-18T11:02:51.648Z,36.97
2018-09-18T11:03:51.661Z,36.67
2018-09-18T11:04:51.640Z,36.67
2018-09-18T11:05:51.611Z,36.47
2018-09-18T11:06:51.601Z,37.07
2018-09-18T11:07:51.755Z,36.67
2018-09-18T11:08:51.600Z,36.47
2018-09-18T11:09:51.691Z,37.63
2018-09-18T11:10:51.634Z,36.46
2018-09-18T11:11:51.544Z,38.11
2018-09-18T11:12:51.574Z,36.72
2018-09-18T11:13:51.543Z,36.82
2018-09-18T11:14:51.613Z,36.15
2018-09-18T11:15:51.611Z,36.54
2018-09-18T11:16:51.495Z,37.32
2018-09-18T11:17:51.500Z,38.31
2018-09-18T11:18:51.545Z,37.80
2018-09-18T11:19:58.544Z,36.90
2018-09-18T11:20:51.527Z,37.09
2018-09-18T11:21:51.496Z,36.70
2018-09-18T11:22:51.442Z,36.80
2018-09-18T11:23:51.422Z,37.19
2018-09-18T11:24:51.420Z,38.27
2018-09-18T11:25:51.465Z,37.78
2018-09-18T11:26:51.405Z,38.66
2018-09-18T11:27:51.406Z,38.07
2018-09-18T11:28:51.376Z,38.17
2018-09-18T11:29:51.369Z,38.56
2018-09-18T11:30:51.371Z,37.86
2018-09-18T11:31:51.355Z,38.64
2018-09-18T11:32:51.442Z,37.05
2018-09-18T11:33:51.321Z,37.88
2018-09-18T11:34:51.312Z,38.56
2018-09-18T11:35:51.305Z,37.96
2018-09-18T11:36:51.306Z,38.15
2018-09-18T11:37:51.287Z,38.62
2018-09-18T11:38:51.277Z,38.51
2018-09-18T11:39:51.269Z,37.52
2018-09-18T11:40:51.253Z,37.52
2018-09-18T11:41:51.258Z,37.74
2018-09-18T11:42:51.239Z,36.47
2018-09-18T11:43:51.225Z,37.05
2018-09-18T11:44:51.214Z,37.81
2018-09-18T11:45:51.316Z,35.75
2018-09-18T11:46:51.192Z,35.94
2018-09-18T11:47:51.196Z,34.77
2018-09-18T11:48:51.191Z,35.37
2018-09-18T11:49:51.165Z,34.39
2018-09-18T11:50:51.157Z,35.35
2018-09-18T11:51:51.146Z,34.57
2018-09-18T11:52:51.240Z,34.47
2018-09-18T11:53:51.114Z,34.84
2018-09-18T11:54:51.114Z,35.73
2018-09-18T11:55:51.095Z,34.45
2018-09-18T11:56:51.159Z,35.25
2018-09-18T11:57:51.093Z,33.69
2018-09-18T11:58:51.062Z,34.78
2018-09-18T11:59:51.062Z,33.80
2018-09-18T12:00:51.046Z,34.57
2018-09-18T12:01:51.038Z,34.28
2018-09-18T12:02:51.199Z,34.16
2018-09-18T12:03:51.023Z,32.70
2018-09-18T12:04:51.155Z,34.08
2018-09-18T12:05:51.035Z,33.79
2018-09-18T12:06:50.987Z,33.89
2018-09-18T12:07:50.969Z,34.86
2018-09-18T12:08:51.054Z,33.87
2018-09-18T12:09:50.964Z,33.58
2018-09-18T12:10:50.943Z,34.47
2018-09-18T12:11:50.928Z,33.90
2018-09-18T12:12:50.914Z,34.11
2018-09-18T12:13:50.931Z,34.41
2018-09-18T12:14:50.899Z,34.39
2018-09-18T12:15:50.888Z,34.00
2018-09-18T12:16:50.882Z,34.49
2018-09-18T12:17:50.870Z,34.18
2018-09-18T12:18:50.851Z,33.79
2018-09-18T12:19:50.841Z,34.39
2018-09-18T12:20:50.833Z,34.59
2018-09-18T12:21:50.825Z,34.69
2018-09-18T12:22:50.849Z,34.88
2018-09-18T12:23:50.833Z,35.57
2018-09-18T12:24:50.793Z,35.45
2018-09-18T12:25:50.773Z,34.38
2018-09-18T12:26:50.767Z,34.20
2018-09-18T12:27:50.779Z,34.39
2018-09-18T12:28:50.758Z,33.98
2018-09-18T12:29:50.739Z,33.79
2018-09-18T12:30:50.722Z,34.65
2018-09-18T12:31:50.712Z,34.36
2018-09-18T12:32:50.703Z,33.00
2018-09-18T12:33:50.705Z,34.08
2018-09-18T12:34:50.686Z,32.90
2018-09-18T12:35:50.750Z,34.45
2018-09-18T12:36:50.770Z,34.28
2018-09-18T12:37:50.645Z,32.81
2018-09-18T12:38:50.653Z,33.69
2018-09-18T12:39:50.625Z,33.22
2018-09-18T12:40:50.616Z,32.61
2018-09-18T12:41:50.645Z,34.28
2018-09-18T12:42:50.694Z,32.81
2018-09-18T12:43:50.588Z,33.89
2018-09-18T12:44:50.587Z,33.29
2018-09-18T12:45:50.560Z,34.18
2018-09-18T12:46:50.577Z,32.81
2018-09-18T12:47:50.577Z,32.71
2018-09-18T12:48:50.532Z,32.81
2018-09-18T12:49:50.698Z,34.08
2018-09-18T12:50:50.514Z,33.00
2018-09-18T12:51:50.503Z,33.69
2018-09-18T12:52:50.495Z,32.42